sensor_id;sensor_type;location;lat;lon;timestamp;P1;durP1;ratioP1;P2;durP2;ratioP2
20609;SDS011;10463;52.378;9.688;2023-04-01T00:01:39;1.87;;;1.37;;
20609;SDS011;10463;52.378;9.688;2023-04-01T00:04:23;1.80;;;1.20;;
20609;SDS011;10463;52.378;9.688;2023-04-01T00:07:08;1.97;;;1.30;;
20609;SDS011;10463;52.378;9.688;2023-04-01T00:09:53;2.00;;;1.47;;
20609;SDS011;10463;52.378;9.688;2023-04-01T00:12:42;1.90;;;1.47;;
20609;SDS011;10463;52.378;9.688;2023-04-01T00:15:27;2.50;;;1.50;;
20609;SDS011;10463;52.378;9.688;2023-04-01T00:18:12;1.87;;;1.50;;
20609;SDS011;10463;52.378;9.688;2023-04-01T00:20:57;2.10;;;1.20;;
20609;SDS011;10463;52.378;9.688;2023-04-01T00:23:42;1.70;;;1.00;;
20609;SDS011;10463;52.378;9.688;2023-04-01T00:26:27;2.00;;;1.10;;
20609;SDS011;10463;52.378;9.688;2023-04-01T00:29:14;2.20;;;1.43;;
20609;SDS011;10463;52.378;9.688;2023-04-01T00:31:59;1.87;;;1.30;;
20609;SDS011;10463;52.378;9.688;2023-04-01T00:34:44;1.60;;;1.23;;
20609;SDS011;10463;52.378;9.688;2023-04-01T00:37:29;2.17;;;1.63;;
20609;SDS011;10463;52.378;9.688;2023-04-01T00:40:24;2.40;;;1.43;;
20609;SDS011;10463;52.378;9.688;2023-04-01T00:43:12;1.70;;;1.10;;
20609;SDS011;10463;52.378;9.688;2023-04-01T00:46:00;1.90;;;1.30;;
20609;SDS011;10463;52.378;9.688;2023-04-01T00:48:47;1.70;;;1.20;;
20609;SDS011;10463;52.378;9.688;2023-04-01T00:51:35;2.00;;;1.30;;
20609;SDS011;10463;52.378;9.688;2023-04-01T00:54:24;2.03;;;1.43;;
20609;SDS011;10463;52.378;9.688;2023-04-01T00:57:13;2.43;;;1.30;;
20609;SDS011;10463;52.378;9.688;2023-04-01T01:00:01;2.27;;;1.57;;
20609;SDS011;10463;52.378;9.688;2023-04-01T01:02:49;1.77;;;1.17;;
20609;SDS011;10463;52.378;9.688;2023-04-01T01:05:45;2.00;;;1.20;;
20609;SDS011;10463;52.378;9.688;2023-04-01T01:08:55;1.97;;;1.23;;
20609;SDS011;10463;52.378;9.688;2023-04-01T01:11:57;1.73;;;1.27;;
20609;SDS011;10463;52.378;9.688;2023-04-01T01:14:55;1.87;;;1.20;;
20609;SDS011;10463;52.378;9.688;2023-04-01T01:17:58;2.10;;;1.43;;
20609;SDS011;10463;52.378;9.688;2023-04-01T01:20:59;1.80;;;1.10;;
20609;SDS011;10463;52.378;9.688;2023-04-01T01:24:22;1.70;;;1.20;;
20609;SDS011;10463;52.378;9.688;2023-04-01T01:27:14;2.13;;;1.50;;
20609;SDS011;10463;52.378;9.688;2023-04-01T01:30:22;1.60;;;1.00;;
20609;SDS011;10463;52.378;9.688;2023-04-01T01:33:25;2.20;;;1.27;;
20609;SDS011;10463;52.378;9.688;2023-04-01T01:36:30;1.70;;;1.20;;
20609;SDS011;10463;52.378;9.688;2023-04-01T01:39:20;1.50;;;0.90;;
20609;SDS011;10463;52.378;9.688;2023-04-01T01:42:13;1.67;;;1.00;;
20609;SDS011;10463;52.378;9.688;2023-04-01T01:45:00;1.57;;;0.90;;
20609;SDS011;10463;52.378;9.688;2023-04-01T01:47:47;1.90;;;1.20;;
20609;SDS011;10463;52.378;9.688;2023-04-01T01:50:34;1.70;;;0.97;;
20609;SDS011;10463;52.378;9.688;2023-04-01T01:53:22;1.70;;;0.90;;
20609;SDS011;10463;52.378;9.688;2023-04-01T01:56:07;1.60;;;0.97;;
20609;SDS011;10463;52.378;9.688;2023-04-01T01:58:59;1.60;;;0.97;;
20609;SDS011;10463;52.378;9.688;2023-04-01T02:01:49;1.40;;;0.80;;
20609;SDS011;10463;52.378;9.688;2023-04-01T02:04:38;1.63;;;1.10;;
20609;SDS011;10463;52.378;9.688;2023-04-01T02:07:28;1.70;;;1.20;;
20609;SDS011;10463;52.378;9.688;2023-04-01T02:10:19;1.90;;;1.00;;
20609;SDS011;10463;52.378;9.688;2023-04-01T02:13:09;1.57;;;1.03;;
20609;SDS011;10463;52.378;9.688;2023-04-01T02:16:02;1.43;;;0.90;;
20609;SDS011;10463;52.378;9.688;2023-04-01T02:18:52;1.50;;;0.80;;
20609;SDS011;10463;52.378;9.688;2023-04-01T02:21:39;1.60;;;1.00;;
20609;SDS011;10463;52.378;9.688;2023-04-01T02:24:27;1.53;;;1.00;;
20609;SDS011;10463;52.378;9.688;2023-04-01T02:27:15;1.40;;;0.90;;
20609;SDS011;10463;52.378;9.688;2023-04-01T02:30:00;1.30;;;0.73;;
20609;SDS011;10463;52.378;9.688;2023-04-01T02:32:46;1.30;;;0.70;;
20609;SDS011;10463;52.378;9.688;2023-04-01T02:35:32;1.80;;;1.00;;
20609;SDS011;10463;52.378;9.688;2023-04-01T02:38:19;1.93;;;0.90;;
20609;SDS011;10463;52.378;9.688;2023-04-01T02:41:04;1.40;;;0.83;;
20609;SDS011;10463;52.378;9.688;2023-04-01T02:43:51;1.50;;;0.97;;
20609;SDS011;10463;52.378;9.688;2023-04-01T02:46:36;1.40;;;0.80;;
20609;SDS011;10463;52.378;9.688;2023-04-01T02:49:22;1.70;;;1.10;;
20609;SDS011;10463;52.378;9.688;2023-04-01T02:52:06;1.50;;;1.13;;
20609;SDS011;10463;52.378;9.688;2023-04-01T02:54:52;1.53;;;0.97;;
20609;SDS011;10463;52.378;9.688;2023-04-01T02:57:37;1.57;;;0.93;;
20609;SDS011;10463;52.378;9.688;2023-04-01T03:00:23;1.50;;;0.90;;
20609;SDS011;10463;52.378;9.688;2023-04-01T03:03:11;1.50;;;1.00;;
20609;SDS011;10463;52.378;9.688;2023-04-01T03:05:57;2.13;;;1.10;;
20609;SDS011;10463;52.378;9.688;2023-04-01T03:08:44;1.40;;;0.80;;
20609;SDS011;10463;52.378;9.688;2023-04-01T03:11:29;1.67;;;0.80;;
20609;SDS011;10463;52.378;9.688;2023-04-01T03:14:13;1.60;;;1.00;;
20609;SDS011;10463;52.378;9.688;2023-04-01T03:17:00;1.50;;;0.90;;
20609;SDS011;10463;52.378;9.688;2023-04-01T03:19:45;1.33;;;0.73;;
20609;SDS011;10463;52.378;9.688;2023-04-01T03:22:30;1.60;;;1.00;;
20609;SDS011;10463;52.378;9.688;2023-04-01T03:25:15;1.67;;;0.90;;
20609;SDS011;10463;52.378;9.688;2023-04-01T03:28:00;1.50;;;0.80;;
20609;SDS011;10463;52.378;9.688;2023-04-01T03:30:45;1.50;;;0.70;;
20609;SDS011;10463;52.378;9.688;2023-04-01T03:33:31;1.40;;;0.80;;
20609;SDS011;10463;52.378;9.688;2023-04-01T03:36:17;1.97;;;1.00;;
20609;SDS011;10463;52.378;9.688;2023-04-01T03:39:02;1.73;;;0.90;;
20609;SDS011;10463;52.378;9.688;2023-04-01T03:41:54;1.23;;;0.60;;
20609;SDS011;10463;52.378;9.688;2023-04-01T03:44:39;1.80;;;1.03;;
20609;SDS011;10463;52.378;9.688;2023-04-01T03:47:25;1.40;;;0.80;;
20609;SDS011;10463;52.378;9.688;2023-04-01T03:50:12;1.47;;;0.90;;
20609;SDS011;10463;52.378;9.688;2023-04-01T03:52:56;1.40;;;0.80;;
20609;SDS011;10463;52.378;9.688;2023-04-01T03:55:41;1.83;;;0.87;;
20609;SDS011;10463;52.378;9.688;2023-04-01T03:58:25;1.50;;;0.90;;
20609;SDS011;10463;52.378;9.688;2023-04-01T04:01:16;1.57;;;0.70;;
20609;SDS011;10463;52.378;9.688;2023-04-01T04:04:02;1.43;;;0.83;;
20609;SDS011;10463;52.378;9.688;2023-04-01T04:06:49;1.60;;;0.70;;
20609;SDS011;10463;52.378;9.688;2023-04-01T04:09:35;1.40;;;0.90;;
20609;SDS011;10463;52.378;9.688;2023-04-01T04:12:19;1.33;;;0.70;;
20609;SDS011;10463;52.378;9.688;2023-04-01T04:15:05;1.57;;;0.90;;
20609;SDS011;10463;52.378;9.688;2023-04-01T04:17:50;1.30;;;0.73;;
20609;SDS011;10463;52.378;9.688;2023-04-01T04:20:35;1.30;;;0.70;;
20609;SDS011;10463;52.378;9.688;2023-04-01T04:23:22;1.30;;;0.73;;
20609;SDS011;10463;52.378;9.688;2023-04-01T04:26:08;1.30;;;0.70;;
20609;SDS011;10463;52.378;9.688;2023-04-01T04:28:54;1.40;;;0.70;;
20609;SDS011;10463;52.378;9.688;2023-04-01T04:31:40;1.50;;;0.80;;
20609;SDS011;10463;52.378;9.688;2023-04-01T04:34:24;1.40;;;0.80;;
20609;SDS011;10463;52.378;9.688;2023-04-01T04:37:09;1.37;;;0.73;;
20609;SDS011;10463;52.378;9.688;2023-04-01T04:39:56;1.40;;;0.87;;
20609;SDS011;10463;52.378;9.688;2023-04-01T04:42:41;1.50;;;0.80;;
20609;SDS011;10463;52.378;9.688;2023-04-01T04:45:30;1.70;;;0.80;;
20609;SDS011;10463;52.378;9.688;2023-04-01T04:48:16;1.40;;;0.80;;
20609;SDS011;10463;52.378;9.688;2023-04-01T04:51:03;1.40;;;0.70;;
20609;SDS011;10463;52.378;9.688;2023-04-01T04:53:48;1.30;;;0.70;;
20609;SDS011;10463;52.378;9.688;2023-04-01T04:56:35;1.67;;;0.80;;
20609;SDS011;10463;52.378;9.688;2023-04-01T04:59:25;1.30;;;0.77;;
20609;SDS011;10463;52.378;9.688;2023-04-01T05:02:24;1.50;;;0.80;;
20609;SDS011;10463;52.378;9.688;2023-04-01T05:05:09;1.30;;;0.70;;
20609;SDS011;10463;52.378;9.688;2023-04-01T05:07:55;1.50;;;0.70;;
20609;SDS011;10463;52.378;9.688;2023-04-01T05:10:39;1.50;;;0.90;;
20609;SDS011;10463;52.378;9.688;2023-04-01T05:13:25;1.30;;;0.70;;
20609;SDS011;10463;52.378;9.688;2023-04-01T05:16:12;1.23;;;0.60;;
20609;SDS011;10463;52.378;9.688;2023-04-01T05:18:58;1.30;;;0.70;;
20609;SDS011;10463;52.378;9.688;2023-04-01T05:21:43;1.40;;;0.80;;
20609;SDS011;10463;52.378;9.688;2023-04-01T05:24:28;1.40;;;0.70;;
20609;SDS011;10463;52.378;9.688;2023-04-01T05:27:14;1.30;;;0.70;;
20609;SDS011;10463;52.378;9.688;2023-04-01T05:30:01;1.40;;;0.70;;
20609;SDS011;10463;52.378;9.688;2023-04-01T05:33:07;1.60;;;0.90;;
20609;SDS011;10463;52.378;9.688;2023-04-01T05:35:51;1.40;;;0.80;;
20609;SDS011;10463;52.378;9.688;2023-04-01T05:38:37;1.43;;;0.73;;
20609;SDS011;10463;52.378;9.688;2023-04-01T05:41:23;1.30;;;0.70;;
20609;SDS011;10463;52.378;9.688;2023-04-01T05:44:10;1.50;;;0.80;;
20609;SDS011;10463;52.378;9.688;2023-04-01T05:47:00;1.30;;;0.70;;
20609;SDS011;10463;52.378;9.688;2023-04-01T05:49:45;1.63;;;0.90;;
20609;SDS011;10463;52.378;9.688;2023-04-01T05:52:30;1.40;;;0.80;;
20609;SDS011;10463;52.378;9.688;2023-04-01T05:55:15;1.53;;;0.90;;
20609;SDS011;10463;52.378;9.688;2023-04-01T05:58:00;1.47;;;0.80;;
20609;SDS011;10463;52.378;9.688;2023-04-01T06:00:46;1.43;;;0.93;;
20609;SDS011;10463;52.378;9.688;2023-04-01T06:03:35;1.40;;;0.80;;
20609;SDS011;10463;52.378;9.688;2023-04-01T06:06:23;2.07;;;1.40;;
20609;SDS011;10463;52.378;9.688;2023-04-01T06:09:14;2.10;;;1.23;;
20609;SDS011;10463;52.378;9.688;2023-04-01T06:12:22;1.73;;;1.20;;
20609;SDS011;10463;52.378;9.688;2023-04-01T06:15:25;1.70;;;1.50;;
20609;SDS011;10463;52.378;9.688;2023-04-01T06:18:55;1.87;;;1.23;;
20609;SDS011;10463;52.378;9.688;2023-04-01T06:25:49;2.50;;;1.70;;
20609;SDS011;10463;52.378;9.688;2023-04-01T06:39:37;2.80;;;2.30;;
20609;SDS011;10463;52.378;9.688;2023-04-01T06:42:46;3.13;;;2.67;;
20609;SDS011;10463;52.378;9.688;2023-04-01T06:46:02;3.70;;;2.87;;
20609;SDS011;10463;52.378;9.688;2023-04-01T06:49:33;3.37;;;2.70;;
20609;SDS011;10463;52.378;9.688;2023-04-01T06:53:07;3.60;;;2.70;;
20609;SDS011;10463;52.378;9.688;2023-04-01T06:56:18;3.90;;;3.07;;
20609;SDS011;10463;52.378;9.688;2023-04-01T06:59:33;3.97;;;3.47;;
20609;SDS011;10463;52.378;9.688;2023-04-01T07:02:24;4.10;;;3.27;;
20609;SDS011;10463;52.378;9.688;2023-04-01T07:05:16;4.00;;;3.13;;
20609;SDS011;10463;52.378;9.688;2023-04-01T07:08:02;3.60;;;3.10;;
20609;SDS011;10463;52.378;9.688;2023-04-01T07:10:53;3.93;;;3.10;;
20609;SDS011;10463;52.378;9.688;2023-04-01T07:14:01;4.53;;;3.83;;
20609;SDS011;10463;52.378;9.688;2023-04-01T07:16:51;3.80;;;3.33;;
20609;SDS011;10463;52.378;9.688;2023-04-01T07:19:42;4.40;;;3.50;;
20609;SDS011;10463;52.378;9.688;2023-04-01T07:22:32;4.77;;;3.97;;
20609;SDS011;10463;52.378;9.688;2023-04-01T07:25:34;4.03;;;3.63;;
20609;SDS011;10463;52.378;9.688;2023-04-01T07:29:01;4.17;;;3.63;;
20609;SDS011;10463;52.378;9.688;2023-04-01T07:32:05;4.20;;;3.50;;
20609;SDS011;10463;52.378;9.688;2023-04-01T07:35:14;4.87;;;4.00;;
20609;SDS011;10463;52.378;9.688;2023-04-01T07:38:14;4.90;;;4.27;;
20609;SDS011;10463;52.378;9.688;2023-04-01T07:41:08;5.80;;;4.00;;
20609;SDS011;10463;52.378;9.688;2023-04-01T07:44:07;5.50;;;4.60;;
20609;SDS011;10463;52.378;9.688;2023-04-01T07:47:10;6.03;;;4.93;;
20609;SDS011;10463;52.378;9.688;2023-04-01T07:50:11;5.40;;;4.57;;
20609;SDS011;10463;52.378;9.688;2023-04-01T07:53:07;5.57;;;4.60;;
20609;SDS011;10463;52.378;9.688;2023-04-01T07:56:04;5.10;;;4.57;;
20609;SDS011;10463;52.378;9.688;2023-04-01T07:58:59;5.13;;;4.20;;
20609;SDS011;10463;52.378;9.688;2023-04-01T08:02:20;4.80;;;4.00;;
20609;SDS011;10463;52.378;9.688;2023-04-01T08:05:22;4.90;;;4.30;;
20609;SDS011;10463;52.378;9.688;2023-04-01T08:08:15;4.87;;;4.27;;
20609;SDS011;10463;52.378;9.688;2023-04-01T08:11:37;5.30;;;4.80;;
20609;SDS011;10463;52.378;9.688;2023-04-01T08:15:02;5.43;;;4.37;;
20609;SDS011;10463;52.378;9.688;2023-04-01T08:18:26;5.57;;;4.60;;
20609;SDS011;10463;52.378;9.688;2023-04-01T08:21:21;5.20;;;4.70;;
20609;SDS011;10463;52.378;9.688;2023-04-01T08:24:13;5.07;;;4.37;;
20609;SDS011;10463;52.378;9.688;2023-04-01T08:27:09;5.60;;;4.87;;
20609;SDS011;10463;52.378;9.688;2023-04-01T08:30:03;5.93;;;5.33;;
20609;SDS011;10463;52.378;9.688;2023-04-01T08:33:03;6.07;;;4.90;;
20609;SDS011;10463;52.378;9.688;2023-04-01T08:35:58;5.20;;;4.63;;
20609;SDS011;10463;52.378;9.688;2023-04-01T08:38:50;6.10;;;5.50;;
20609;SDS011;10463;52.378;9.688;2023-04-01T08:41:48;5.20;;;4.70;;
20609;SDS011;10463;52.378;9.688;2023-04-01T08:45:07;5.40;;;4.77;;
20609;SDS011;10463;52.378;9.688;2023-04-01T08:48:27;5.30;;;4.67;;
20609;SDS011;10463;52.378;9.688;2023-04-01T08:52:02;5.70;;;5.10;;
20609;SDS011;10463;52.378;9.688;2023-04-01T08:55:31;5.63;;;4.93;;
20609;SDS011;10463;52.378;9.688;2023-04-01T08:58:46;6.73;;;5.30;;
20609;SDS011;10463;52.378;9.688;2023-04-01T09:01:58;5.50;;;4.50;;
20609;SDS011;10463;52.378;9.688;2023-04-01T09:05:37;6.13;;;4.97;;
20609;SDS011;10463;52.378;9.688;2023-04-01T09:08:45;5.00;;;4.10;;
20609;SDS011;10463;52.378;9.688;2023-04-01T09:11:59;4.70;;;4.20;;
20609;SDS011;10463;52.378;9.688;2023-04-01T09:15:30;5.20;;;4.70;;
20609;SDS011;10463;52.378;9.688;2023-04-01T09:18:59;4.57;;;3.90;;
20609;SDS011;10463;52.378;9.688;2023-04-01T09:22:22;4.33;;;3.90;;
20609;SDS011;10463;52.378;9.688;2023-04-01T09:25:31;5.03;;;4.53;;
20609;SDS011;10463;52.378;9.688;2023-04-01T09:28:28;5.33;;;4.83;;
20609;SDS011;10463;52.378;9.688;2023-04-01T09:31:31;6.00;;;4.90;;
20609;SDS011;10463;52.378;9.688;2023-04-01T09:34:54;5.90;;;5.30;;
20609;SDS011;10463;52.378;9.688;2023-04-01T09:37:57;5.20;;;4.40;;
20609;SDS011;10463;52.378;9.688;2023-04-01T09:40:55;5.03;;;4.50;;
20609;SDS011;10463;52.378;9.688;2023-04-01T09:44:09;5.97;;;4.60;;
20609;SDS011;10463;52.378;9.688;2023-04-01T09:47:27;5.20;;;4.30;;
20609;SDS011;10463;52.378;9.688;2023-04-01T09:50:35;6.30;;;5.20;;
20609;SDS011;10463;52.378;9.688;2023-04-01T09:53:41;5.13;;;4.57;;
20609;SDS011;10463;52.378;9.688;2023-04-01T10:00:24;5.07;;;4.57;;
20609;SDS011;10463;52.378;9.688;2023-04-01T10:13:39;5.50;;;4.80;;
20609;SDS011;10463;52.378;9.688;2023-04-01T10:17:07;5.73;;;4.60;;
20609;SDS011;10463;52.378;9.688;2023-04-01T10:20:28;5.10;;;4.23;;
20609;SDS011;10463;52.378;9.688;2023-04-01T10:27:15;5.60;;;4.30;;
20609;SDS011;10463;52.378;9.688;2023-04-01T10:30:34;4.70;;;3.50;;
20609;SDS011;10463;52.378;9.688;2023-04-01T10:34:18;4.23;;;3.83;;
20609;SDS011;10463;52.378;9.688;2023-04-01T10:37:36;5.33;;;4.10;;
20609;SDS011;10463;52.378;9.688;2023-04-01T10:48:53;4.23;;;3.30;;
20609;SDS011;10463;52.378;9.688;2023-04-01T10:52:34;3.30;;;2.90;;
20609;SDS011;10463;52.378;9.688;2023-04-01T10:55:44;3.77;;;3.43;;
20609;SDS011;10463;52.378;9.688;2023-04-01T10:59:21;5.27;;;3.73;;
20609;SDS011;10463;52.378;9.688;2023-04-01T11:07:13;4.07;;;3.00;;
20609;SDS011;10463;52.378;9.688;2023-04-01T11:13:47;3.30;;;3.00;;
20609;SDS011;10463;52.378;9.688;2023-04-01T11:17:05;4.13;;;3.13;;
20609;SDS011;10463;52.378;9.688;2023-04-01T11:20:34;4.37;;;2.83;;
20609;SDS011;10463;52.378;9.688;2023-04-01T11:23:54;4.77;;;3.77;;
20609;SDS011;10463;52.378;9.688;2023-04-01T11:27:09;4.50;;;3.23;;
20609;SDS011;10463;52.378;9.688;2023-04-01T11:30:20;3.67;;;3.20;;
20609;SDS011;10463;52.378;9.688;2023-04-01T11:33:15;3.67;;;3.00;;
20609;SDS011;10463;52.378;9.688;2023-04-01T11:36:14;4.13;;;2.83;;
20609;SDS011;10463;52.378;9.688;2023-04-01T11:39:20;3.17;;;2.80;;
20609;SDS011;10463;52.378;9.688;2023-04-01T11:42:23;4.87;;;3.37;;
20609;SDS011;10463;52.378;9.688;2023-04-01T11:45:36;4.23;;;3.40;;
20609;SDS011;10463;52.378;9.688;2023-04-01T11:48:41;3.90;;;2.90;;
20609;SDS011;10463;52.378;9.688;2023-04-01T11:52:02;4.00;;;3.10;;
20609;SDS011;10463;52.378;9.688;2023-04-01T11:58:22;4.03;;;3.23;;
20609;SDS011;10463;52.378;9.688;2023-04-01T12:01:33;4.07;;;3.13;;
20609;SDS011;10463;52.378;9.688;2023-04-01T12:04:51;4.07;;;3.13;;
20609;SDS011;10463;52.378;9.688;2023-04-01T12:08:02;4.30;;;3.23;;
20609;SDS011;10463;52.378;9.688;2023-04-01T12:11:04;3.63;;;2.93;;
20609;SDS011;10463;52.378;9.688;2023-04-01T12:14:05;3.67;;;2.90;;
20609;SDS011;10463;52.378;9.688;2023-04-01T12:17:02;4.10;;;3.30;;
20609;SDS011;10463;52.378;9.688;2023-04-01T12:19:58;3.20;;;2.43;;
20609;SDS011;10463;52.378;9.688;2023-04-01T12:22:58;2.97;;;2.30;;
20609;SDS011;10463;52.378;9.688;2023-04-01T12:26:22;4.03;;;2.87;;
20609;SDS011;10463;52.378;9.688;2023-04-01T12:29:37;3.30;;;2.50;;
20609;SDS011;10463;52.378;9.688;2023-04-01T12:32:37;5.00;;;3.30;;
20609;SDS011;10463;52.378;9.688;2023-04-01T12:35:30;3.70;;;3.00;;
20609;SDS011;10463;52.378;9.688;2023-04-01T12:38:31;3.13;;;2.63;;
20609;SDS011;10463;52.378;9.688;2023-04-01T12:41:39;3.10;;;2.50;;
20609;SDS011;10463;52.378;9.688;2023-04-01T12:44:42;3.33;;;2.73;;
20609;SDS011;10463;52.378;9.688;2023-04-01T12:48:00;3.67;;;2.50;;
20609;SDS011;10463;52.378;9.688;2023-04-01T12:51:26;4.00;;;3.10;;
20609;SDS011;10463;52.378;9.688;2023-04-01T13:01:30;4.87;;;3.30;;
20609;SDS011;10463;52.378;9.688;2023-04-01T13:04:54;4.00;;;2.63;;
20609;SDS011;10463;52.378;9.688;2023-04-01T13:07:57;3.57;;;3.00;;
20609;SDS011;10463;52.378;9.688;2023-04-01T13:11:02;5.17;;;2.80;;
20609;SDS011;10463;52.378;9.688;2023-04-01T13:14:19;5.40;;;2.97;;
20609;SDS011;10463;52.378;9.688;2023-04-01T13:17:17;3.83;;;3.07;;
20609;SDS011;10463;52.378;9.688;2023-04-01T13:20:11;3.13;;;2.50;;
20609;SDS011;10463;52.378;9.688;2023-04-01T13:23:09;4.00;;;2.13;;
20609;SDS011;10463;52.378;9.688;2023-04-01T13:26:10;3.07;;;2.37;;
20609;SDS011;10463;52.378;9.688;2023-04-01T13:29:02;3.23;;;2.40;;
20609;SDS011;10463;52.378;9.688;2023-04-01T13:32:00;2.90;;;2.43;;
20609;SDS011;10463;52.378;9.688;2023-04-01T13:35:11;3.20;;;2.60;;
20609;SDS011;10463;52.378;9.688;2023-04-01T13:38:32;4.00;;;2.43;;
20609;SDS011;10463;52.378;9.688;2023-04-01T13:41:38;3.33;;;2.80;;
20609;SDS011;10463;52.378;9.688;2023-04-01T13:44:47;3.17;;;2.10;;
20609;SDS011;10463;52.378;9.688;2023-04-01T13:51:22;2.77;;;2.00;;
20609;SDS011;10463;52.378;9.688;2023-04-01T13:54:36;2.90;;;2.23;;
20609;SDS011;10463;52.378;9.688;2023-04-01T13:57:43;3.10;;;2.40;;
20609;SDS011;10463;52.378;9.688;2023-04-01T14:00:54;3.93;;;1.80;;
20609;SDS011;10463;52.378;9.688;2023-04-01T14:04:00;2.60;;;2.10;;
20609;SDS011;10463;52.378;9.688;2023-04-01T14:07:09;2.20;;;1.80;;
20609;SDS011;10463;52.378;9.688;2023-04-01T14:10:07;3.40;;;2.03;;
20609;SDS011;10463;52.378;9.688;2023-04-01T14:13:15;2.60;;;1.90;;
20609;SDS011;10463;52.378;9.688;2023-04-01T14:19:50;2.57;;;1.60;;
20609;SDS011;10463;52.378;9.688;2023-04-01T14:22:55;2.47;;;1.70;;
20609;SDS011;10463;52.378;9.688;2023-04-01T14:26:13;3.20;;;1.67;;
20609;SDS011;10463;52.378;9.688;2023-04-01T14:29:18;2.73;;;1.50;;
20609;SDS011;10463;52.378;9.688;2023-04-01T14:32:16;3.30;;;1.73;;
20609;SDS011;10463;52.378;9.688;2023-04-01T14:35:35;2.00;;;1.50;;
20609;SDS011;10463;52.378;9.688;2023-04-01T14:38:34;2.30;;;1.43;;
20609;SDS011;10463;52.378;9.688;2023-04-01T14:41:30;1.90;;;1.37;;
20609;SDS011;10463;52.378;9.688;2023-04-01T14:44:37;2.00;;;1.30;;
20609;SDS011;10463;52.378;9.688;2023-04-01T14:47:44;2.10;;;1.23;;
20609;SDS011;10463;52.378;9.688;2023-04-01T14:50:41;1.47;;;1.07;;
20609;SDS011;10463;52.378;9.688;2023-04-01T14:53:30;1.90;;;1.20;;
20609;SDS011;10463;52.378;9.688;2023-04-01T14:56:36;3.97;;;1.50;;
20609;SDS011;10463;52.378;9.688;2023-04-01T14:59:28;1.80;;;1.00;;
20609;SDS011;10463;52.378;9.688;2023-04-01T15:02:27;2.10;;;1.10;;
20609;SDS011;10463;52.378;9.688;2023-04-01T15:05:31;1.80;;;1.10;;
20609;SDS011;10463;52.378;9.688;2023-04-01T15:08:28;1.50;;;0.97;;
20609;SDS011;10463;52.378;9.688;2023-04-01T15:11:35;1.73;;;1.10;;
20609;SDS011;10463;52.378;9.688;2023-04-01T15:14:40;2.20;;;1.40;;
20609;SDS011;10463;52.378;9.688;2023-04-01T15:18:00;1.77;;;1.17;;
20609;SDS011;10463;52.378;9.688;2023-04-01T15:21:02;1.70;;;1.10;;
20609;SDS011;10463;52.378;9.688;2023-04-01T15:24:06;1.57;;;1.03;;
20609;SDS011;10463;52.378;9.688;2023-04-01T15:27:02;2.00;;;1.30;;
20609;SDS011;10463;52.378;9.688;2023-04-01T15:36:38;4.10;;;2.30;;
20609;SDS011;10463;52.378;9.688;2023-04-01T15:39:34;2.90;;;2.07;;
20609;SDS011;10463;52.378;9.688;2023-04-01T15:42:43;3.00;;;2.40;;
20609;SDS011;10463;52.378;9.688;2023-04-01T15:45:47;2.67;;;2.23;;
20609;SDS011;10463;52.378;9.688;2023-04-01T15:48:57;2.50;;;1.83;;
20609;SDS011;10463;52.378;9.688;2023-04-01T15:51:58;2.60;;;2.20;;
20609;SDS011;10463;52.378;9.688;2023-04-01T15:55:00;2.33;;;1.70;;
20609;SDS011;10463;52.378;9.688;2023-04-01T15:58:06;2.10;;;1.83;;
20609;SDS011;10463;52.378;9.688;2023-04-01T16:01:24;2.70;;;2.03;;
20609;SDS011;10463;52.378;9.688;2023-04-01T16:04:36;3.50;;;2.10;;
20609;SDS011;10463;52.378;9.688;2023-04-01T16:07:48;2.40;;;1.70;;
20609;SDS011;10463;52.378;9.688;2023-04-01T16:10:58;2.73;;;2.00;;
20609;SDS011;10463;52.378;9.688;2023-04-01T16:13:55;2.20;;;1.40;;
20609;SDS011;10463;52.378;9.688;2023-04-01T16:16:58;2.23;;;1.50;;
20609;SDS011;10463;52.378;9.688;2023-04-01T16:19:55;2.73;;;1.73;;
20609;SDS011;10463;52.378;9.688;2023-04-01T16:22:46;1.90;;;1.20;;
20609;SDS011;10463;52.378;9.688;2023-04-01T16:25:39;1.90;;;1.30;;
20609;SDS011;10463;52.378;9.688;2023-04-01T16:28:29;1.80;;;1.30;;
20609;SDS011;10463;52.378;9.688;2023-04-01T16:31:26;2.33;;;1.50;;
20609;SDS011;10463;52.378;9.688;2023-04-01T16:34:19;1.80;;;1.20;;
20609;SDS011;10463;52.378;9.688;2023-04-01T16:37:15;1.93;;;1.17;;
20609;SDS011;10463;52.378;9.688;2023-04-01T16:40:12;2.53;;;1.40;;
20609;SDS011;10463;52.378;9.688;2023-04-01T16:43:11;2.20;;;1.10;;
20609;SDS011;10463;52.378;9.688;2023-04-01T16:46:32;2.03;;;1.30;;
20609;SDS011;10463;52.378;9.688;2023-04-01T16:49:29;1.50;;;1.00;;
20609;SDS011;10463;52.378;9.688;2023-04-01T16:52:30;2.10;;;1.27;;
20609;SDS011;10463;52.378;9.688;2023-04-01T16:55:21;1.83;;;1.20;;
20609;SDS011;10463;52.378;9.688;2023-04-01T16:58:09;1.90;;;1.10;;
20609;SDS011;10463;52.378;9.688;2023-04-01T17:01:00;1.90;;;1.17;;
20609;SDS011;10463;52.378;9.688;2023-04-01T17:03:51;2.63;;;1.10;;
20609;SDS011;10463;52.378;9.688;2023-04-01T17:06:44;1.87;;;1.00;;
20609;SDS011;10463;52.378;9.688;2023-04-01T17:09:51;1.90;;;1.00;;
20609;SDS011;10463;52.378;9.688;2023-04-01T17:12:49;1.60;;;1.00;;
20609;SDS011;10463;52.378;9.688;2023-04-01T17:15:44;1.63;;;1.10;;
20609;SDS011;10463;52.378;9.688;2023-04-01T17:18:38;1.40;;;1.00;;
20609;SDS011;10463;52.378;9.688;2023-04-01T17:21:45;1.60;;;0.90;;
20609;SDS011;10463;52.378;9.688;2023-04-01T17:24:46;1.80;;;1.07;;
20609;SDS011;10463;52.378;9.688;2023-04-01T17:27:46;1.30;;;0.70;;
20609;SDS011;10463;52.378;9.688;2023-04-01T17:30:37;1.67;;;0.80;;
20609;SDS011;10463;52.378;9.688;2023-04-01T17:33:51;1.40;;;0.90;;
20609;SDS011;10463;52.378;9.688;2023-04-01T17:36:50;1.53;;;0.90;;
20609;SDS011;10463;52.378;9.688;2023-04-01T17:39:56;1.60;;;1.00;;
20609;SDS011;10463;52.378;9.688;2023-04-01T17:42:57;1.40;;;0.80;;
20609;SDS011;10463;52.378;9.688;2023-04-01T17:45:48;1.40;;;0.93;;
20609;SDS011;10463;52.378;9.688;2023-04-01T17:48:41;1.50;;;0.90;;
20609;SDS011;10463;52.378;9.688;2023-04-01T17:51:34;2.00;;;1.10;;
20609;SDS011;10463;52.378;9.688;2023-04-01T17:54:27;1.60;;;1.00;;
20609;SDS011;10463;52.378;9.688;2023-04-01T17:57:29;1.63;;;0.97;;
20609;SDS011;10463;52.378;9.688;2023-04-01T18:00:29;1.50;;;1.00;;
20609;SDS011;10463;52.378;9.688;2023-04-01T18:03:32;1.40;;;0.80;;
20609;SDS011;10463;52.378;9.688;2023-04-01T18:06:45;1.53;;;0.90;;
20609;SDS011;10463;52.378;9.688;2023-04-01T18:09:45;1.40;;;0.80;;
20609;SDS011;10463;52.378;9.688;2023-04-01T18:12:59;1.67;;;0.80;;
20609;SDS011;10463;52.378;9.688;2023-04-01T18:16:02;1.60;;;0.83;;
20609;SDS011;10463;52.378;9.688;2023-04-01T18:19:02;1.30;;;0.70;;
20609;SDS011;10463;52.378;9.688;2023-04-01T18:21:55;1.50;;;0.90;;
20609;SDS011;10463;52.378;9.688;2023-04-01T18:24:45;1.40;;;0.70;;
20609;SDS011;10463;52.378;9.688;2023-04-01T18:27:41;1.43;;;0.80;;
20609;SDS011;10463;52.378;9.688;2023-04-01T18:30:32;1.40;;;0.80;;
20609;SDS011;10463;52.378;9.688;2023-04-01T18:33:21;1.43;;;0.87;;
20609;SDS011;10463;52.378;9.688;2023-04-01T18:36:19;1.60;;;0.80;;
20609;SDS011;10463;52.378;9.688;2023-04-01T18:39:12;1.83;;;0.80;;
20609;SDS011;10463;52.378;9.688;2023-04-01T18:42:05;1.60;;;0.70;;
20609;SDS011;10463;52.378;9.688;2023-04-01T18:45:02;1.40;;;0.80;;
20609;SDS011;10463;52.378;9.688;2023-04-01T18:48:10;1.63;;;0.70;;
20609;SDS011;10463;52.378;9.688;2023-04-01T21:34:54;1.20;;;0.60;;
20609;SDS011;10463;52.378;9.688;2023-04-01T21:37:49;1.30;;;0.70;;
20609;SDS011;10463;52.378;9.688;2023-04-01T21:51:15;1.27;;;0.67;;
20609;SDS011;10463;52.378;9.688;2023-04-01T21:54:50;1.30;;;0.80;;
20609;SDS011;10463;52.378;9.688;2023-04-01T21:58:19;1.47;;;0.70;;
20609;SDS011;10463;52.378;9.688;2023-04-01T22:04:59;1.30;;;0.70;;
20609;SDS011;10463;52.378;9.688;2023-04-01T22:07:55;1.30;;;0.70;;
20609;SDS011;10463;52.378;9.688;2023-04-01T22:10:48;1.30;;;0.70;;